createdAt,value
2018-04-28T07:18:13.813Z,13.80
2018-04-28T07:18:49.324Z,13.80
2018-04-28T07:19:24.593Z,12.90
2018-04-28T07:19:59.655Z,14.10
2018-04-28T07:20:37.249Z,10.40
2018-04-28T07:21:15.682Z,10.20
2018-04-28T07:21:50.909Z,9.60
2018-04-28T07:22:26.312Z,9.90
2018-04-28T07:23:03.228Z,7.10
2018-04-28T07:23:43.730Z,11.20
2018-04-28T07:24:19.065Z,8.50
2018-04-28T07:24:54.463Z,10.80
2018-04-28T07:25:29.664Z,14.20
2018-04-28T07:26:06.464Z,12.00
2018-04-28T07:26:41.796Z,10.80
2018-04-28T07:27:17.062Z,12.50
2018-04-28T07:27:52.254Z,11.90
2018-04-28T07:28:27.456Z,9.30
2018-04-28T07:29:02.743Z,8.50
2018-04-28T07:29:37.953Z,12.50
2018-04-28T07:30:13.799Z,14.50
2018-04-28T07:30:49.321Z,15.60
2018-04-28T07:31:24.801Z,12.40
2018-04-28T07:32:00.612Z,18.40
2018-04-28T07:32:35.798Z,15.10
2018-04-28T07:33:11.528Z,10.30
2018-04-28T07:33:46.874Z,13.30
2018-04-28T07:34:22.172Z,16.20
2018-04-28T07:34:57.855Z,12.40
2018-04-28T07:35:33.079Z,11.80
2018-04-28T07:36:08.316Z,11.80
2018-04-28T07:36:44.024Z,12.80
2018-04-28T07:37:19.571Z,15.00
2018-04-28T07:37:54.870Z,15.80
2018-04-28T07:38:30.183Z,13.10
2018-04-28T07:39:05.620Z,10.30
2018-04-28T07:39:40.592Z,10.40
2018-04-28T07:40:16.066Z,14.10
2018-04-28T07:40:54.608Z,14.10
2018-04-28T07:41:29.856Z,12.00
2018-04-28T07:42:05.526Z,11.10
2018-04-28T07:42:41.739Z,13.80
2018-04-28T07:43:19.542Z,16.40
2018-04-28T07:43:54.942Z,16.30
2018-04-28T07:44:31.367Z,13.20
2018-04-28T07:45:06.679Z,12.40
2018-04-28T07:45:42.100Z,13.40
2018-04-28T07:46:17.286Z,14.10
2018-04-28T07:46:52.846Z,13.70
2018-04-28T07:47:28.267Z,13.10
2018-04-28T07:48:03.895Z,14.60
2018-04-28T07:48:39.121Z,14.40
2018-04-28T07:49:15.919Z,11.60
2018-04-28T07:49:51.753Z,13.90
2018-04-28T07:50:27.351Z,15.20
2018-04-28T07:51:03.495Z,16.50
2018-04-28T07:51:41.003Z,16.10
2018-04-28T07:52:16.712Z,16.50
2018-04-28T07:52:52.113Z,11.80
2018-04-28T07:53:27.133Z,13.50
2018-04-28T07:54:02.227Z,15.30
2018-04-28T07:54:37.814Z,19.10
2018-04-28T07:55:13.499Z,12.10
2018-04-28T07:55:49.311Z,12.90
2018-04-28T07:56:24.719Z,13.00
2018-04-28T07:56:59.897Z,13.60
2018-04-28T07:57:35.320Z,13.80
2018-04-28T07:58:10.644Z,13.40
2018-04-28T07:58:46.851Z,13.10
2018-04-28T07:59:22.057Z,15.40
2018-04-28T07:59:57.386Z,13.40
2018-04-28T08:00:32.940Z,14.90
2018-04-28T08:01:07.934Z,14.90
2018-04-28T08:01:43.244Z,11.80
2018-04-28T08:02:18.767Z,13.40
2018-04-28T08:02:54.013Z,14.60
2018-04-28T08:03:29.195Z,12.60
2018-04-28T08:04:04.712Z,15.00
2018-04-28T08:04:40.102Z,14.10
2018-04-28T08:05:15.745Z,13.30
2018-04-28T08:05:51.244Z,12.50
2018-04-28T08:06:28.005Z,13.00
2018-04-28T08:07:06.375Z,15.90
2018-04-28T08:07:41.848Z,12.60
2018-04-28T08:08:17.351Z,15.20
2018-04-28T08:08:52.858Z,20.00
2018-04-28T08:09:28.075Z,19.00
2018-04-28T08:10:03.389Z,14.80
2018-04-28T08:10:38.946Z,11.70
2018-04-28T08:11:14.329Z,13.80
2018-04-28T08:11:49.756Z,16.60
2018-04-28T08:12:25.090Z,13.30
2018-04-28T08:13:00.394Z,12.80
2018-04-28T08:13:37.044Z,11.60
2018-04-28T08:14:12.442Z,10.90
2018-04-28T08:14:47.788Z,14.40
2018-04-28T08:15:23.135Z,14.60
2018-04-28T08:15:58.741Z,11.40
2018-04-28T08:16:33.956Z,13.10
2018-04-28T08:17:09.463Z,13.90
2018-04-28T08:17:45.101Z,18.80
2018-04-28T08:18:20.523Z,18.00
2018-04-28T08:18:55.954Z,17.80
2018-04-28T08:19:31.379Z,18.40
2018-04-28T08:20:06.917Z,17.00
2018-04-28T08:20:46.973Z,10.10
2018-04-28T08:21:22.275Z,14.20
2018-04-28T08:21:57.403Z,14.70
2018-04-28T08:22:32.810Z,14.10
2018-04-28T08:23:08.129Z,11.40
2018-04-28T08:23:49.076Z,17.10
2018-04-28T08:24:24.391Z,20.90
2018-04-28T08:24:59.725Z,16.40
2018-04-28T08:25:35.583Z,18.50
2018-04-28T08:26:11.327Z,25.40
2018-04-28T08:26:46.957Z,19.10
2018-04-28T08:27:22.143Z,14.50
2018-04-28T08:27:57.668Z,19.10
2018-04-28T08:28:33.204Z,17.80
2018-04-28T08:29:08.638Z,13.40
2018-04-28T08:29:44.371Z,13.00
2018-04-28T08:30:19.675Z,12.40
2018-04-28T08:30:54.860Z,14.50
2018-04-28T08:31:30.272Z,17.00
2018-04-28T08:32:05.735Z,18.40
2018-04-28T08:32:41.439Z,12.40
2018-04-28T08:33:16.689Z,14.70
2018-04-28T08:33:51.787Z,11.90
2018-04-28T08:34:27.210Z,16.50
2018-04-28T08:35:03.908Z,20.00
2018-04-28T08:35:40.946Z,14.30
2018-04-28T08:36:18.964Z,13.20
2018-04-28T08:36:54.188Z,17.30
2018-04-28T08:37:29.600Z,16.10
2018-04-28T08:38:04.889Z,17.40
2018-04-28T08:38:40.314Z,16.30
2018-04-28T08:39:15.701Z,17.00
2018-04-28T08:39:51.257Z,16.10
2018-04-28T08:40:26.547Z,15.10
2018-04-28T08:41:01.993Z,13.20
2018-04-28T08:41:37.536Z,19.00
2018-04-28T08:42:13.058Z,19.90
2018-04-28T08:42:48.198Z,16.60
2018-04-28T08:43:23.597Z,18.60
2018-04-28T08:43:59.004Z,16.60
2018-04-28T08:44:35.283Z,9.00
2018-04-28T08:45:10.499Z,15.50
2018-04-28T08:45:46.133Z,20.70
2018-04-28T08:46:21.568Z,18.10
2018-04-28T08:46:57.211Z,18.80
2018-04-28T08:47:32.288Z,22.20
2018-04-28T08:48:07.502Z,17.90
2018-04-28T08:48:42.926Z,12.90
2018-04-28T08:49:18.048Z,13.50
2018-04-28T08:49:53.553Z,20.20
2018-04-28T08:50:28.761Z,15.10
2018-04-28T08:51:04.906Z,12.70
2018-04-28T08:51:40.104Z,12.20
2018-04-28T08:52:15.708Z,16.80
2018-04-28T08:52:51.235Z,19.60
2018-04-28T08:53:26.890Z,16.90
2018-04-28T08:54:02.319Z,13.10
2018-04-28T08:54:38.261Z,11.00
2018-04-28T08:55:13.748Z,15.40
2018-04-28T08:55:49.223Z,16.80
2018-04-28T08:56:24.478Z,13.30
2018-04-28T08:56:59.695Z,17.60
2018-04-28T08:57:34.975Z,17.50
2018-04-28T08:58:10.520Z,13.40
2018-04-28T08:58:45.861Z,10.90
2018-04-28T08:59:21.376Z,13.80
2018-04-28T08:59:56.693Z,17.80
2018-04-28T09:00:31.894Z,13.80
2018-04-28T09:01:07.344Z,13.50
2018-04-28T09:01:42.838Z,17.90
2018-04-28T09:02:18.674Z,17.10
2018-04-28T09:02:54.288Z,15.00
2018-04-28T09:03:29.526Z,13.40
2018-04-28T09:04:04.731Z,10.40
2018-04-28T09:04:41.971Z,12.30
2018-04-28T09:05:17.908Z,17.00
2018-04-28T09:05:54.320Z,15.60
2018-04-28T09:06:29.866Z,18.70
2018-04-28T09:07:05.363Z,19.30
2018-04-28T09:07:40.704Z,15.90
2018-04-28T09:08:15.996Z,12.80
2018-04-28T09:08:51.579Z,12.80
2018-04-28T09:09:27.975Z,15.50
2018-04-28T09:10:03.600Z,17.80
2018-04-28T09:10:39.039Z,15.60
2018-04-28T09:11:14.554Z,11.30
2018-04-28T09:11:50.074Z,17.20
2018-04-28T09:12:25.382Z,14.90
2018-04-28T09:13:00.827Z,10.50
2018-04-28T09:13:36.102Z,15.10
2018-04-28T09:14:11.409Z,19.00
2018-04-28T09:14:46.806Z,14.20
2018-04-28T09:15:22.175Z,14.70
2018-04-28T09:15:57.379Z,13.10
2018-04-28T09:16:32.941Z,12.80
2018-04-28T09:17:08.387Z,12.90
2018-04-28T09:17:43.918Z,11.20
2018-04-28T09:18:19.152Z,9.70
2018-04-28T09:18:54.658Z,12.30
2018-04-28T09:19:29.917Z,13.30
2018-04-28T09:20:05.229Z,12.50
2018-04-28T09:20:40.661Z,13.60
2018-04-28T09:21:17.172Z,9.80
2018-04-28T09:21:52.501Z,13.00
2018-04-28T09:22:28.063Z,11.30
2018-04-28T09:23:03.364Z,9.60
2018-04-28T09:23:38.788Z,13.10
2018-04-28T09:24:14.002Z,8.50
2018-04-28T09:24:49.634Z,11.50
2018-04-28T09:25:25.343Z,14.80
2018-04-28T09:26:00.697Z,11.50
2018-04-28T09:26:36.141Z,10.00
2018-04-28T09:27:11.682Z,10.80
2018-04-28T09:27:47.089Z,13.90
2018-04-28T09:28:23.444Z,12.20
2018-04-28T09:28:58.650Z,10.00
2018-04-28T09:29:33.855Z,8.10
2018-04-28T09:30:09.290Z,9.60
2018-04-28T09:30:44.646Z,14.70
2018-04-28T09:31:19.993Z,14.00
2018-04-28T09:31:55.296Z,12.20
2018-04-28T09:32:30.721Z,10.70
2018-04-28T09:33:06.000Z,11.10
2018-04-28T09:33:41.367Z,15.20
2018-04-28T09:34:16.646Z,13.80
2018-04-28T09:34:51.894Z,13.10
2018-04-28T09:35:27.068Z,14.30
2018-04-28T09:36:02.207Z,11.00
2018-04-28T09:36:37.464Z,10.60
2018-04-28T09:37:13.210Z,9.10
2018-04-28T09:37:48.544Z,10.00
2018-04-28T09:38:24.072Z,13.60
2018-04-28T09:39:00.617Z,16.10
2018-04-28T09:39:35.922Z,13.50
2018-04-28T09:40:11.339Z,9.40
2018-04-28T09:40:46.672Z,11.40
2018-04-28T09:41:22.155Z,13.30
2018-04-28T09:41:57.601Z,11.20
2018-04-28T09:42:33.059Z,13.20
2018-04-28T09:43:08.486Z,10.50
2018-04-28T09:43:43.824Z,6.60
2018-04-28T09:44:19.325Z,8.90
2018-04-28T09:44:54.639Z,9.20
2018-04-28T09:45:30.190Z,9.30
2018-04-28T09:46:05.488Z,12.30
2018-04-28T09:46:40.838Z,14.40
2018-04-28T09:47:16.125Z,13.20
2018-04-28T09:47:51.591Z,10.30
2018-04-28T09:48:27.012Z,10.50
2018-04-28T09:49:02.854Z,11.50
2018-04-28T09:49:38.101Z,8.80
2018-04-28T09:50:13.645Z,10.50
2018-04-28T09:50:49.071Z,10.50
2018-04-28T09:51:24.453Z,11.60
2018-04-28T09:52:00.142Z,17.00
2018-04-28T09:52:37.218Z,16.50
2018-04-28T09:53:13.044Z,15.60
2018-04-28T09:53:50.728Z,9.60
2018-04-28T09:54:25.976Z,8.90
2018-04-28T09:55:01.590Z,10.30
2018-04-28T09:55:37.179Z,14.20
2018-04-28T09:56:13.125Z,15.90
2018-04-28T09:56:48.228Z,11.90
2018-04-28T09:57:23.585Z,12.60
2018-04-28T09:57:59.012Z,10.70
2018-04-28T09:58:36.330Z,6.80
2018-04-28T09:59:11.740Z,8.30
2018-04-28T09:59:47.568Z,8.20
2018-04-28T10:00:22.705Z,8.40
2018-04-28T10:00:57.911Z,8.30
2018-04-28T10:01:33.849Z,8.80
2018-04-28T10:02:09.303Z,10.70
2018-04-28T10:02:44.930Z,11.50
2018-04-28T10:03:20.233Z,8.10
2018-04-28T10:03:55.514Z,14.40
2018-04-28T10:04:30.842Z,13.80
2018-04-28T10:05:06.188Z,9.10
2018-04-28T10:05:41.386Z,6.30
2018-04-28T10:06:19.839Z,10.00
2018-04-28T10:07:00.297Z,11.10
2018-04-28T10:07:35.710Z,14.40
2018-04-28T10:08:11.173Z,14.30
2018-04-28T10:08:46.756Z,11.90
2018-04-28T10:09:22.188Z,13.00
2018-04-28T10:09:57.909Z,9.00
2018-04-28T10:10:33.144Z,8.00
2018-04-28T10:11:09.161Z,11.10
2018-04-28T10:11:44.569Z,13.10
2018-04-28T10:12:20.006Z,15.20
2018-04-28T10:12:55.219Z,14.20
2018-04-28T10:13:30.474Z,11.50
2018-04-28T10:14:05.581Z,13.20
2018-04-28T10:14:40.954Z,11.50
2018-04-28T10:15:16.400Z,13.20
2018-04-28T10:15:51.841Z,12.60
2018-04-28T10:16:27.138Z,11.60
2018-04-28T10:17:05.451Z,9.40
2018-04-28T10:17:40.890Z,8.60
2018-04-28T10:18:16.184Z,8.50
2018-04-28T10:18:51.853Z,12.80
2018-04-28T10:19:27.216Z,12.30
2018-04-28T10:20:02.481Z,8.90
2018-04-28T10:20:37.669Z,10.50
2018-04-28T10:21:13.398Z,9.90
2018-04-28T10:21:49.631Z,10.30
2018-04-28T10:22:26.252Z,10.10
2018-04-28T10:23:01.909Z,10.00
2018-04-28T10:23:37.100Z,12.00
2018-04-28T10:24:12.760Z,8.70
2018-04-28T10:24:48.074Z,9.00
2018-04-28T10:25:23.395Z,10.80
2018-04-28T10:26:00.822Z,11.80
2018-04-28T10:26:36.294Z,10.90
2018-04-28T10:27:12.050Z,12.70
2018-04-28T10:27:47.564Z,8.90
2018-04-28T10:28:22.988Z,9.80
2018-04-28T10:28:58.378Z,10.20
2018-04-28T10:29:34.047Z,11.20
2018-04-28T10:30:09.344Z,11.90
2018-04-28T10:30:44.488Z,10.30
2018-04-28T10:31:20.011Z,8.70
2018-04-28T10:31:55.619Z,11.00
2018-04-28T10:32:30.927Z,10.30
2018-04-28T10:33:06.551Z,10.40
2018-04-28T10:33:42.317Z,10.30
2018-04-28T10:34:17.292Z,12.20
2018-04-28T10:34:52.855Z,15.10
2018-04-28T10:35:28.090Z,9.80
2018-04-28T10:36:03.427Z,11.60
2018-04-28T10:36:38.729Z,12.40
2018-04-28T10:37:14.370Z,12.40
2018-04-28T10:37:49.483Z,11.30
2018-04-28T10:38:25.242Z,11.10
2018-04-28T10:39:00.857Z,12.90
2018-04-28T10:39:36.188Z,10.10
2018-04-28T10:40:11.636Z,14.30
2018-04-28T10:40:48.152Z,11.60
2018-04-28T10:41:25.169Z,10.60
2018-04-28T10:42:00.509Z,12.80
2018-04-28T10:42:36.117Z,11.60
2018-04-28T10:43:11.643Z,11.60
2018-04-28T10:43:47.186Z,13.70
2018-04-28T10:44:22.382Z,11.00
2018-04-28T10:44:58.009Z,13.50
2018-04-28T10:45:33.550Z,13.00
2018-04-28T10:46:09.186Z,11.00
2018-04-28T10:46:44.709Z,11.70
2018-04-28T10:47:20.130Z,12.30
2018-04-28T10:47:55.547Z,14.80
2018-04-28T10:48:30.840Z,10.80
2018-04-28T10:49:06.565Z,9.10
2018-04-28T10:49:42.157Z,11.70
2018-04-28T10:50:17.622Z,8.60
2018-04-28T10:50:56.104Z,9.00
2018-04-28T10:51:31.332Z,11.60
2018-04-28T10:52:06.684Z,15.70
2018-04-28T10:52:44.598Z,10.90
2018-04-28T10:53:20.128Z,11.30
2018-04-28T10:53:55.462Z,10.70
2018-04-28T10:54:30.671Z,13.80
2018-04-28T10:55:05.994Z,13.50
2018-04-28T10:55:41.430Z,11.10
2018-04-28T10:56:16.914Z,11.90
2018-04-28T10:56:53.660Z,11.30
2018-04-28T10:57:29.788Z,11.30
2018-04-28T10:58:05.089Z,12.10
2018-04-28T10:58:40.410Z,12.70
2018-04-28T10:59:16.114Z,12.60
2018-04-28T10:59:51.455Z,11.90
2018-04-28T11:00:26.794Z,12.50
2018-04-28T11:01:02.103Z,10.70
2018-04-28T11:01:37.300Z,10.00
2018-04-28T11:02:13.235Z,13.60
2018-04-28T11:02:48.537Z,12.50
2018-04-28T11:03:24.077Z,12.50
2018-04-28T11:03:59.399Z,19.10
2018-04-28T11:04:34.701Z,13.20
2018-04-28T11:05:10.043Z,18.50
2018-04-28T11:05:45.382Z,14.10
2018-04-28T11:06:20.879Z,10.40
2018-04-28T11:06:56.806Z,15.00
2018-04-28T11:07:32.268Z,10.40
2018-04-28T11:08:07.967Z,12.50
2018-04-28T11:08:44.988Z,13.10
2018-04-28T11:09:20.099Z,10.30
2018-04-28T11:09:55.339Z,10.10
2018-04-28T11:10:30.697Z,10.30
2018-04-28T11:11:06.128Z,13.70
2018-04-28T11:11:42.839Z,10.90
2018-04-28T11:12:18.051Z,10.10
2018-04-28T11:12:53.280Z,12.50
2018-04-28T11:13:28.687Z,11.60
2018-04-28T11:14:04.189Z,13.90
2018-04-28T11:14:39.513Z,14.00
2018-04-28T11:15:14.621Z,10.90
2018-04-28T11:15:50.153Z,9.90
2018-04-28T11:16:25.586Z,9.50
2018-04-28T11:17:01.163Z,11.20
2018-04-28T11:17:36.645Z,12.50
2018-04-28T11:18:12.167Z,13.50
2018-04-28T11:18:47.385Z,10.20
2018-04-28T11:19:23.331Z,7.60
2018-04-28T11:19:58.555Z,7.50
2018-04-28T11:20:34.176Z,10.30
2018-04-28T11:21:09.807Z,11.10
2018-04-28T11:21:46.027Z,16.10
2018-04-28T11:22:21.547Z,17.20
2018-04-28T11:22:57.035Z,10.00
2018-04-28T11:23:32.282Z,10.90
2018-04-28T11:24:07.798Z,11.10
2018-04-28T11:24:43.412Z,13.90
2018-04-28T11:25:18.609Z,14.50
2018-04-28T11:25:54.030Z,11.20
2018-04-28T11:26:29.803Z,12.50
2018-04-28T11:27:05.208Z,14.00
2018-04-28T11:27:40.377Z,10.70
2018-04-28T11:28:15.573Z,12.10
2018-04-28T11:28:51.090Z,9.80
2018-04-28T11:29:26.700Z,9.70
2018-04-28T11:30:02.336Z,11.10
2018-04-28T11:30:41.292Z,11.10
2018-04-28T11:31:16.696Z,13.60
2018-04-28T11:31:52.095Z,13.30
2018-04-28T11:32:27.297Z,14.20
2018-04-28T11:33:02.486Z,12.00
2018-04-28T11:33:37.802Z,10.10
2018-04-28T11:34:13.256Z,12.00
2018-04-28T11:34:48.571Z,9.90
2018-04-28T11:35:24.170Z,10.00
2018-04-28T11:35:59.605Z,10.30
2018-04-28T11:36:35.059Z,11.10
2018-04-28T11:37:11.469Z,17.70
2018-04-28T11:37:47.076Z,13.70
2018-04-28T11:38:22.927Z,9.90
2018-04-28T11:38:58.106Z,9.50
2018-04-28T11:39:33.346Z,10.80
2018-04-28T11:40:08.660Z,10.20
2018-04-28T11:40:44.146Z,8.30
2018-04-28T11:41:19.515Z,12.40
2018-04-28T11:41:54.824Z,11.20
2018-04-28T11:42:30.127Z,15.30
2018-04-28T11:43:05.356Z,18.20
2018-04-28T11:43:40.709Z,11.80
2018-04-28T11:44:16.024Z,9.80
2018-04-28T11:44:51.485Z,11.50
2018-04-28T11:45:26.705Z,11.00
2018-04-28T11:46:02.228Z,9.10
2018-04-28T11:46:38.425Z,9.60
2018-04-28T11:47:13.735Z,11.50
2018-04-28T11:47:48.933Z,9.90
2018-04-28T11:48:24.369Z,13.40
2018-04-28T11:48:59.656Z,14.20
2018-04-28T11:49:35.115Z,12.20
2018-04-28T11:50:10.135Z,12.10
2018-04-28T11:50:45.520Z,10.50
2018-04-28T11:51:21.061Z,9.40
2018-04-28T11:51:56.563Z,10.00
2018-04-28T11:52:31.896Z,9.90
2018-04-28T11:53:07.104Z,10.50
2018-04-28T11:53:42.215Z,11.10
2018-04-28T11:54:17.717Z,11.50
2018-04-28T11:54:52.950Z,12.10
2018-04-28T11:55:28.132Z,9.30
2018-04-28T11:56:03.284Z,8.90
2018-04-28T11:56:38.514Z,9.90
2018-04-28T11:57:14.411Z,11.00
2018-04-28T11:57:49.730Z,12.70
2018-04-28T11:58:25.119Z,12.50
2018-04-28T11:59:00.718Z,8.60
2018-04-28T11:59:36.060Z,8.20
2018-04-28T12:00:11.437Z,11.00
2018-04-28T12:00:47.680Z,10.60
2018-04-28T12:01:22.964Z,13.90
2018-04-28T12:01:58.262Z,12.00
2018-04-28T12:02:33.648Z,7.50
2018-04-28T12:03:09.020Z,11.20
2018-04-28T12:03:44.439Z,10.10
2018-04-28T12:04:20.096Z,10.80
2018-04-28T12:04:55.207Z,12.40
2018-04-28T12:05:30.651Z,9.50
2018-04-28T12:06:06.218Z,14.90
2018-04-28T12:06:41.665Z,14.40
2018-04-28T12:07:16.778Z,8.80
2018-04-28T12:07:52.306Z,10.00
2018-04-28T12:08:27.765Z,8.90
2018-04-28T12:09:02.876Z,12.70
2018-04-28T12:09:38.126Z,8.90
2018-04-28T12:10:13.532Z,8.20
2018-04-28T12:10:48.880Z,9.50
2018-04-28T12:11:24.281Z,10.80
2018-04-28T12:11:59.800Z,16.70
2018-04-28T12:12:35.200Z,13.30
2018-04-28T12:13:10.577Z,9.50
2018-04-28T12:13:46.180Z,11.30
2018-04-28T12:14:21.809Z,9.60
2018-04-28T12:14:57.135Z,16.10
2018-04-28T12:15:32.554Z,12.70
2018-04-28T12:16:08.976Z,11.60
2018-04-28T12:16:44.513Z,11.90
2018-04-28T12:17:19.831Z,12.50
2018-04-28T12:17:55.314Z,8.60
2018-04-28T12:18:30.619Z,8.00
2018-04-28T12:19:05.943Z,8.60
2018-04-28T12:19:41.537Z,6.70
2018-04-28T12:20:16.748Z,8.20
2018-04-28T12:20:55.376Z,12.40
2018-04-28T12:21:30.709Z,10.00
2018-04-28T12:22:05.835Z,13.60
2018-04-28T12:22:41.492Z,13.90
2018-04-28T12:23:16.978Z,10.00
2018-04-28T12:23:52.309Z,14.00
2018-04-28T12:24:27.609Z,10.10
2018-04-28T12:25:06.028Z,10.50
2018-04-28T12:25:41.177Z,10.80
2018-04-28T12:26:16.480Z,17.50
2018-04-28T12:26:51.812Z,18.50
2018-04-28T12:27:27.311Z,13.00
2018-04-28T12:28:02.737Z,10.60
2018-04-28T12:28:38.113Z,9.30
2018-04-28T12:29:13.534Z,11.70
2018-04-28T12:29:49.217Z,11.60
2018-04-28T12:30:24.270Z,12.10
2018-04-28T12:30:59.464Z,10.30
2018-04-28T12:31:34.914Z,12.50
2018-04-28T12:32:10.250Z,14.60
2018-04-28T12:32:45.454Z,10.90
2018-04-28T12:33:21.172Z,9.70
2018-04-28T12:33:56.788Z,11.90
2018-04-28T12:34:31.919Z,11.30
2018-04-28T12:35:07.322Z,8.30
2018-04-28T12:35:42.540Z,9.10
2018-04-28T12:36:17.837Z,12.00
2018-04-28T12:36:52.976Z,10.00
2018-04-28T12:37:28.481Z,10.20
2018-04-28T12:38:03.817Z,9.60
2018-04-28T12:38:39.287Z,10.00
2018-04-28T12:39:14.516Z,9.80
2018-04-28T12:39:49.857Z,11.00
2018-04-28T12:40:25.187Z,10.70
2018-04-28T12:41:00.777Z,10.80
2018-04-28T12:41:36.424Z,11.30
2018-04-28T12:42:12.203Z,11.40
2018-04-28T12:42:47.633Z,11.10
2018-04-28T12:43:23.443Z,13.50
2018-04-28T12:43:58.645Z,11.20
2018-04-28T12:44:33.973Z,12.60
2018-04-28T12:45:09.299Z,10.90
2018-04-28T12:45:44.706Z,9.60
2018-04-28T12:46:20.047Z,9.10
2018-04-28T12:46:55.389Z,10.50
2018-04-28T12:47:30.706Z,12.10
2018-04-28T12:48:05.705Z,12.40
2018-04-28T12:48:41.140Z,11.60
2018-04-28T12:49:16.349Z,11.30
2018-04-28T12:49:51.787Z,10.20
2018-04-28T12:50:27.152Z,11.20
2018-04-28T12:51:04.617Z,9.40
2018-04-28T12:51:39.775Z,7.70
2018-04-28T12:52:14.992Z,8.90
2018-04-28T12:52:51.031Z,9.10
2018-04-28T12:53:26.380Z,9.30
2018-04-28T12:54:01.615Z,8.40
2018-04-28T12:54:37.153Z,11.20
2018-04-28T12:55:12.753Z,8.70
2018-04-28T12:55:48.082Z,10.40
2018-04-28T12:56:23.399Z,9.60
2018-04-28T12:56:58.872Z,7.10
2018-04-28T12:57:34.266Z,9.40
2018-04-28T12:58:09.488Z,15.40
2018-04-28T12:58:44.796Z,15.60
2018-04-28T12:59:20.311Z,8.80
2018-04-28T12:59:55.700Z,7.10
2018-04-28T13:00:31.134Z,7.60
2018-04-28T13:01:06.484Z,9.40
2018-04-28T13:01:42.307Z,13.30
2018-04-28T13:02:17.476Z,12.20
2018-04-28T13:02:52.683Z,13.00
2018-04-28T13:03:28.010Z,8.10
2018-04-28T13:04:03.404Z,8.60
2018-04-28T13:04:39.345Z,9.70
2018-04-28T13:05:14.693Z,6.70
2018-04-28T13:05:53.000Z,8.10
2018-04-28T13:06:28.222Z,7.90
2018-04-28T13:07:03.667Z,9.50
2018-04-28T13:07:39.124Z,11.20
2018-04-28T13:08:14.542Z,13.40
2018-04-28T13:08:49.888Z,11.00
2018-04-28T13:09:25.399Z,9.00
2018-04-28T13:10:01.820Z,7.40
2018-04-28T13:10:37.131Z,9.80
2018-04-28T13:11:12.441Z,11.70
2018-04-28T13:11:47.847Z,10.90
2018-04-28T13:12:23.108Z,9.00
2018-04-28T13:12:58.444Z,9.50
2018-04-28T13:13:34.066Z,10.00
2018-04-28T13:14:09.407Z,11.60
2018-04-28T13:14:44.879Z,10.10
2018-04-28T13:15:20.122Z,13.30
2018-04-28T13:15:55.520Z,17.60
2018-04-28T13:16:31.243Z,12.40
2018-04-28T13:17:06.601Z,5.90
2018-04-28T13:17:42.120Z,8.90
2018-04-28T13:18:17.621Z,10.10
2018-04-28T13:18:52.847Z,6.90
2018-04-28T13:19:28.096Z,7.80
2018-04-28T13:20:03.383Z,8.00
2018-04-28T13:20:41.497Z,8.20
2018-04-28T13:21:16.726Z,9.40
2018-04-28T13:21:52.375Z,11.80
2018-04-28T13:22:27.903Z,8.00
2018-04-28T13:23:03.332Z,7.60
2018-04-28T13:23:39.032Z,9.10
2018-04-28T13:24:14.372Z,12.70
2018-04-28T13:24:50.761Z,11.20
2018-04-28T13:25:26.003Z,11.90
2018-04-28T13:26:01.557Z,10.80
2018-04-28T13:26:36.770Z,9.00
2018-04-28T13:27:12.729Z,9.90
2018-04-28T13:27:48.218Z,12.60
2018-04-28T13:28:23.438Z,11.50
2018-04-28T13:28:58.728Z,12.00
2018-04-28T13:29:33.946Z,8.60
2018-04-28T13:30:09.451Z,11.00
2018-04-28T13:30:44.907Z,12.70
2018-04-28T13:31:20.239Z,10.80
2018-04-28T13:31:55.950Z,9.50
2018-04-28T13:32:31.309Z,9.60
2018-04-28T13:33:06.621Z,10.10
2018-04-28T13:33:41.938Z,7.80
2018-04-28T13:34:17.043Z,9.30
2018-04-28T13:34:52.408Z,13.10
2018-04-28T13:35:27.928Z,7.40
2018-04-28T13:36:03.258Z,8.30
2018-04-28T13:36:39.324Z,8.50
2018-04-28T13:37:14.887Z,7.10
2018-04-28T13:37:50.508Z,9.60
2018-04-28T13:38:25.988Z,7.70
2018-04-28T13:39:01.549Z,7.80
2018-04-28T13:39:36.977Z,8.70
2018-04-28T13:40:12.604Z,8.90
2018-04-28T13:40:47.812Z,10.40
2018-04-28T13:41:22.958Z,9.60
2018-04-28T13:41:58.425Z,12.70
2018-04-28T13:42:33.789Z,11.80
2018-04-28T13:43:09.286Z,10.90
2018-04-28T13:43:44.920Z,11.10
2018-04-28T13:44:20.170Z,6.70
2018-04-28T13:44:58.057Z,8.30
2018-04-28T13:45:33.693Z,9.10
2018-04-28T13:46:08.998Z,8.80
2018-04-28T13:46:44.427Z,10.30
2018-04-28T13:47:19.545Z,9.30
2018-04-28T13:47:54.920Z,11.10
2018-04-28T13:48:30.023Z,10.60
2018-04-28T13:49:05.930Z,7.60
2018-04-28T13:49:41.218Z,9.00
2018-04-28T13:50:16.459Z,8.60
2018-04-28T13:50:51.780Z,6.60
2018-04-28T13:51:26.987Z,8.90
2018-04-28T13:52:02.331Z,7.60
2018-04-28T13:52:37.628Z,7.10
2018-04-28T13:53:12.836Z,9.60
2018-04-28T13:53:47.960Z,8.30
2018-04-28T13:54:23.479Z,9.30
2018-04-28T13:54:58.939Z,11.00
2018-04-28T13:55:34.222Z,6.60
2018-04-28T13:56:09.658Z,7.10
2018-04-28T13:56:44.977Z,9.90
2018-04-28T13:57:20.204Z,8.10
2018-04-28T13:57:55.635Z,9.60
2018-04-28T13:58:30.844Z,10.60
2018-04-28T13:59:06.234Z,9.10
2018-04-28T13:59:42.061Z,6.90
2018-04-28T14:00:17.245Z,12.00
2018-04-28T14:00:52.719Z,10.80
2018-04-28T14:01:28.062Z,8.60
2018-04-28T14:02:03.343Z,8.30
2018-04-28T14:02:38.887Z,9.90
2018-04-28T14:03:14.209Z,8.00
2018-04-28T14:03:49.668Z,7.90
2018-04-28T14:04:24.963Z,5.20
2018-04-28T14:05:00.510Z,6.10
2018-04-28T14:05:36.113Z,6.80
2018-04-28T14:06:11.642Z,7.80
2018-04-28T14:06:46.933Z,10.60
2018-04-28T14:07:22.565Z,10.60
2018-04-28T14:07:57.925Z,8.60
2018-04-28T14:08:33.143Z,8.40
2018-04-28T14:09:08.759Z,7.10
2018-04-28T14:09:44.115Z,7.50
2018-04-28T14:10:19.394Z,6.80
2018-04-28T14:10:54.612Z,6.80
2018-04-28T14:11:30.226Z,7.60
2018-04-28T14:12:05.260Z,6.10
2018-04-28T14:12:40.714Z,9.10
2018-04-28T14:13:15.825Z,9.20
2018-04-28T14:13:51.036Z,7.30
2018-04-28T14:14:26.362Z,7.40
2018-04-28T14:15:02.262Z,6.80
2018-04-28T14:15:37.483Z,7.20
2018-04-28T14:16:12.918Z,8.60
2018-04-28T14:16:48.254Z,6.60
2018-04-28T14:17:23.675Z,6.20
2018-04-28T14:17:59.058Z,9.30
2018-04-28T14:18:34.462Z,10.90
2018-04-28T14:19:09.867Z,11.20
2018-04-28T14:19:45.392Z,8.00
2018-04-28T14:20:20.585Z,7.10
2018-04-28T14:20:55.909Z,8.70
2018-04-28T14:21:31.629Z,6.60
2018-04-28T14:22:07.269Z,5.80
2018-04-28T14:22:42.363Z,8.20
2018-04-28T14:23:17.805Z,6.60
2018-04-28T14:23:53.224Z,6.70
2018-04-28T14:24:28.446Z,6.10
2018-04-28T14:25:03.737Z,7.60
2018-04-28T14:25:39.679Z,9.60
2018-04-28T14:26:15.219Z,6.20
2018-04-28T14:26:50.447Z,7.30
2018-04-28T14:27:25.765Z,9.20
2018-04-28T14:28:01.126Z,7.80
2018-04-28T14:28:36.786Z,6.10
2018-04-28T14:29:12.475Z,5.30
2018-04-28T14:29:47.793Z,8.00
2018-04-28T14:30:24.801Z,7.40
2018-04-28T14:31:00.260Z,4.40
2018-04-28T14:31:35.799Z,7.40
2018-04-28T14:32:10.994Z,7.90
2018-04-28T14:32:46.717Z,7.10
2018-04-28T14:33:22.048Z,4.80
2018-04-28T14:33:57.226Z,7.10
2018-04-28T14:34:32.956Z,7.90
2018-04-28T14:35:08.001Z,6.40
2018-04-28T14:35:43.443Z,8.20
2018-04-28T14:36:19.076Z,7.00
2018-04-28T14:36:54.605Z,7.40
2018-04-28T14:37:29.808Z,6.50
2018-04-28T14:38:04.960Z,6.30
2018-04-28T14:38:40.265Z,4.50
2018-04-28T14:39:15.405Z,5.40
2018-04-28T14:39:50.804Z,5.40
2018-04-28T14:40:25.821Z,5.10
2018-04-28T14:41:01.224Z,8.60
2018-04-28T14:41:36.634Z,6.60
2018-04-28T14:42:12.046Z,6.60
2018-04-28T14:42:47.461Z,4.80
2018-04-28T14:43:23.149Z,8.90
2018-04-28T14:43:58.671Z,10.80
2018-04-28T14:44:34.091Z,7.00
2018-04-28T14:45:09.403Z,6.90
2018-04-28T14:45:44.850Z,6.70
2018-04-28T14:46:21.076Z,5.70
2018-04-28T14:46:56.274Z,5.20
2018-04-28T14:47:31.692Z,6.20
2018-04-28T14:48:07.185Z,6.10
2018-04-28T14:48:42.595Z,5.70
2018-04-28T14:49:17.995Z,5.00
2018-04-28T14:49:53.433Z,4.30
2018-04-28T14:50:29.044Z,4.70
2018-04-28T14:51:04.451Z,6.00
2018-04-28T14:51:39.641Z,7.40
2018-04-28T14:52:15.089Z,6.20
2018-04-28T14:52:50.404Z,7.50
2018-04-28T14:53:26.046Z,9.50
2018-04-28T14:54:01.951Z,7.40
2018-04-28T14:54:37.430Z,5.30
2018-04-28T14:55:12.805Z,5.60
2018-04-28T14:55:48.156Z,6.10
2018-04-28T14:56:23.563Z,8.90
2018-04-28T14:56:59.094Z,7.70
2018-04-28T14:57:34.518Z,7.00
2018-04-28T14:58:09.869Z,5.70
2018-04-28T14:58:45.585Z,6.50
2018-04-28T14:59:21.192Z,7.60
2018-04-28T14:59:56.431Z,7.20
2018-04-28T15:00:31.847Z,7.10
2018-04-28T15:01:07.108Z,7.30